Portada
METAR-TAF:

METAR-TAF

Aeroports :

Mazar-e Sharif, Afganistan

latitud: 36-42N, longitud: 067-12E, altitud: 378 m

Observació

L'informe es va fer fa 1 hora i 4 minuts, a les 22:50 UTC
Vent 3 kt del Sud/Sud-Est
Temperatura 8°C
Humitat 57%
Pressió 1015 hPa
Visibilitat 10 km o més
Cel clar

METAR: OAMS 162250Z 16003KT 9999 SKC 08/M00 Q1015 BLU+BLU+

Hora: 04:24 (23:54 UTC)

Pronòstic

L'informe es va fer fa 49 minuts, a les 23:05 UTC
Pronòstic vàlid del 17 a les 00 UTC al 17 a les 24 UTC
Vent 8 kt del Sud
Cel clar
Evolucionant progressivament
l' 17 a les 04 UTC al 17 a les 06 UTC
Vent 6 kt del Nord-Est
Escasses núvols a una alçada de 25000 ft

TAF: OAMS 162305Z 1700/1724 18008KT 9999KT NSW SKC BECMG 1704/1706 04006KT 9999KT NSW FEW250

Observacions i pronòstics meteorològics de més de 4000 aeroports (METAR i TAF).

Les estacions disponibles són els punts grocs i vermells al mapa.

Posi el ratolí al punt desitjat per veure el nom de l'estació.

Feu clic per veure les observacions i els pronòstics meteorològics.

Per canviar el mapa: feu clic els botons verds amb una creu de color negre per apropar; al botó verd amb un guió per allunyar la imatge; o en les fletxes verdes per a mapes adjacents.


METAR-TAF: